Flight Track Log - Related Links

Times and Time Zones

All times are in EDT time to prevent confusion due to time zone crossing. See the N966QS flight status page for this flight to view local times or setup timezone preferences in your user account.

Time Position Orientation Groundspeed Altitude Reporting Facility
EDT Latitude Longitude Course Direction KTS MPH feet Rate Location/Type
Wed 10:22:57 AM 37.6667 -122.3667 180° South 197 227 3,500  Level Northern Cal TRACON
Wed 10:25:10 AM 37.6158 -122.4656 237° Southwest 278 320 10,500 2,784 Climbing Oakland Center
Wed 10:26:11 AM 37.4992 -122.4883 189° South 347 399 12,500 2,115 Climbing Oakland Center
Wed 10:27:12 AM 37.3950 -122.5056 187° South 372 428 14,800 2,164 Climbing Oakland Center
Wed 10:28:00 AM 37.0706 -122.5500 180° South  Level FlightAware Approximate
Wed 10:28:13 AM 37.2886 -122.5211 187° South 383 441 16,900  Level Oakland Center
Wed 10:29:15 AM 37.1811 -122.5381 187° South 388 447 18,800 1,756 Climbing Oakland Center
Wed 10:30:16 AM 37.0703 -122.5561 187° South 398 458 20,500 1,623 Climbing Oakland Center
Wed 10:31:17 AM 36.9539 -122.5725 186° South 414 476 22,100 1,574 Climbing Oakland Center
Wed 10:32:18 AM 36.8319 -122.5411 168° South 439 505 23,700 1,561 Climbing Oakland Center
Wed 10:33:20 AM 36.7178 -122.4628 151° Southeast 477 549 25,300 1,561 Climbing Oakland Center
Wed 10:34:21 AM 36.6158 -122.3450 137° Southeast 498 573 26,900 1,574 Climbing Oakland Center
Wed 10:35:22 AM 36.5122 -122.2292 138° Southeast 502 578 28,500 1,770 Climbing Oakland Center
Wed 10:36:23 AM 36.3822 -122.0883 139° Southeast 513 590 30,500 1,756 Climbing Oakland Center
Wed 10:37:25 AM 36.2719 -121.9653 138° Southeast 528 608 32,100 1,561 Climbing Oakland Center
Wed 10:38:26 AM 36.1600 -121.8386 138° Southeast 539 620 33,700 1,377 Climbing Oakland Center
Wed 10:39:27 AM 36.0467 -121.7100 137° Southeast 550 633 34,900 634 Climbing Oakland Center
Wed 10:40:29 AM 35.9278 -121.5817 139° Southeast 562 647 35,000 49 Climbing Oakland Center
Wed 10:41:30 AM 35.8094 -121.4486 138° Southeast 572 658 35,000  Level Oakland Center
Wed 10:42:31 AM 35.6906 -121.3167 138° Southeast 576 663 35,000  Level Oakland Center
Wed 10:43:33 AM 35.5708 -121.1861 138° Southeast 578 665 35,000  Level Oakland Center
Wed 10:44:34 AM 35.4286 -121.0303 138° Southeast 575 662 35,000  Level Oakland Center
Wed 10:45:35 AM 35.3006 -120.9233 146° Southeast 563 648 35,000  Level Oakland Center
Wed 10:46:37 AM 35.1867 -120.8383 149° Southeast 555 639 35,000  Level Oakland Center
Wed 10:47:38 AM 35.0414 -120.7281 148° Southeast 553 636 35,000  Level Oakland Center
Wed 10:48:39 AM 34.8983 -120.6200 148° Southeast 552 635 35,000  Level Oakland Center
Wed 10:49:41 AM 34.7658 -120.5206 148° Southeast 553 636 35,000  Level Oakland Center
Wed 10:50:42 AM 34.6522 -120.4333 148° Southeast 554 638 35,000  Level Oakland Center
Wed 10:51:44 AM 34.4950 -120.3169 149° Southeast 554 638 35,000  Level Oakland Center
Wed 10:53:03 AM 34.3386 -120.2044 149° Southeast 549 632 35,000 -340 Level Los Angeles Center
Wed 10:54:05 AM 34.2356 -120.0997 140° Southeast 560 644 34,200 -2,129 Descending Los Angeles Center
Wed 10:55:07 AM 34.1350 -119.9044 122° Southeast 570 656 30,600 -3,194 Descending Los Angeles Center
Wed 10:56:09 AM 34.0544 -119.7436 121° Southeast 563 648 27,600 -2,855 Descending Los Angeles Center
Wed 10:57:11 AM 33.9756 -119.5878 121° Southeast 550 633 24,700 -2,952 Descending Los Angeles Center
Wed 10:58:13 AM 33.8875 -119.4150 122° Southeast 509 586 21,500 -2,780 Descending Los Angeles Center
Wed 10:59:14 AM 33.8206 -119.2806 121° Southeast 472 543 19,000 -2,439 Descending Los Angeles Center
Wed 11:00:16 AM 33.7519 -119.1472 122° Southeast 470 541 16,500 -2,419 Descending Los Angeles Center
Wed 11:01:18 AM 33.6836 -119.0139 122° Southeast 472 543 14,000 -2,371 Descending Los Angeles Center
Wed 11:02:20 AM 33.6178 -118.8864 122° Southeast 458 527 11,600 -1,403 Descending Los Angeles Center
Wed 11:03:22 AM 33.5422 -118.7436 122° Southeast 430 495 11,100 -242 Descending Los Angeles Center
Wed 11:04:24 AM 33.4817 -118.6261 122° Southeast 421 484 11,100  Level Los Angeles Center
Wed 11:05:26 AM 33.4208 -118.5089 122° Southeast 420 483 11,100  Level Los Angeles Center
Wed 11:06:28 AM 33.3714 -118.3864 116° Southeast 420 483 11,100  Level Los Angeles Center
Wed 11:07:30 AM 33.3519 -118.2528 100° East 417 480 11,100  Level Los Angeles Center
Wed 11:08:31 AM 33.3344 -118.1128 98° East 366 421 11,100 -341 Level Los Angeles Center
Wed 11:09:33 AM 33.3211 -118.0064 99° East 336 387 10,400 -871 Descending Los Angeles Center
Wed 11:10:35 AM 33.3061 -117.9042 100° East 320 368 9,300 -1,161 Descending Los Angeles Center
Wed 11:11:37 AM 33.2939 -117.8044 98° East 310 357 8,000 -1,403 Descending Los Angeles Center
Wed 11:12:39 AM 33.2806 -117.7058 99° East 304 350 6,400 -1,403 Descending Los Angeles Center
Wed 11:13:41 AM 33.2667 -117.6122 100° East 293 337 5,100 -629 Descending Los Angeles Center
Wed 11:14:43 AM 33.2525 -117.5064 99° East 279 321 5,100  Level Los Angeles Center
Wed 11:15:45 AM 33.2417 -117.4206 99° East 270 311 5,100 -636 Level Los Angeles Center
Wed 11:16:55 AM 33.2333 -117.3167 95° East 250 288 3,700 -677 Descending Southern California TRACON
Wed 11:17:49 AM 33.2333 -117.2500 90° East 238 274 3,700  Level Southern California TRACON
Wed 11:18:49 AM 33.2333 -117.1667 90° East 233 268 3,700  Level Southern California TRACON
Wed 11:19:49 AM 33.2000 -117.1000 121° Southeast 235 270 3,700 -263 Level Southern California TRACON
Wed 11:20:43 AM 33.1500 -117.1167 196° South 230 265 3,200 -850 Descending Southern California TRACON
Wed 11:21:49 AM 33.1500 -117.1833 270° West 190 219 2,000 -952 Descending Southern California TRACON
Wed 11:22:49 AM 33.1333 -117.2333 248° West 135 155 1,200 -750 Descending Southern California TRACON
Wed 11:23:49 AM 33.1333 -117.2667 270° West 127 146 500 -700 Descending Southern California TRACON

Login

Don't have an account? Register now (free) for customized features, flight alerts, and more!